Terminal Aerodrome Forecast
Issued by NWS Mt. Holly, NJ

Home | Current Version | Previous Version | Text Only | Print | Product List | Glossary On
Versions: 1 2 3 4 5 6 7 8 9 10 11 12 13 14 15 16 17
000
FTUS41 KPHI 211100
TAFTTN
TAF
KTTN 211123Z 2112/2212 35005KT 6SM BR SCT004 BKN015
      TEMPO 2112/2114 4SM BR BKN002
     FM211600 18005KT P6SM SCT020 BKN100
     FM211900 25005KT P6SM SCT250
     FM220400 28005KT P6SM SCT050=

USA.gov is the U.S. government's official web portal to all federal, state and local government web resources and services.